Terminal Aerodrome Forecast
Issued by NWS

Home | Current Version | Previous Version | Graphics & Text | Print | Product List | Glossary On
Versions: 1 2 3 4 5 6 7 8 9 10 11 12 13 14 15 16 17 18
000
FTUS43 KTOP 282200 AAA
TAFFOE
TAF AMD
KFOE 282209Z 2822/0118 13009KT 6SM -SN BKN018 OVC025
      TEMPO 2822/2824 BKN022
     FM010000 17006KT 6SM BR BKN030
     FM010600 20006KT 2SM -SN BKN020 OVC035
     FM010800 22006KT P6SM SCT015 BKN030=

USA.gov is the U.S. government's official web portal to all federal, state and local government web resources and services.